Impacts TAF Board
For situational awareness. Not to be used for flight planning purposes.
IDs:

KEUG - Eugene/Mahlon Sweet, OR, US

Issued at 1135 UTC 07 Jul 2020
Updated at 1327 UTC 07 Jul 2020
Potential Impact None Slight Moderate High
Time1254Z 07/14Z 07/15Z 07/16Z 07/17Z 07/18Z 07/19Z 07/20Z 07/21Z 07/22Z 07/23Z 08/00Z 08/01Z 08/02Z>>
Type OBS PRVL PRVL PRVL PRVL PRVL PRVL PRVL PRVL PRVL PRVL PRVL PRVL PRVL
VIS 10 >6 >6 >6 >6 >6 >6 >6 >6 >6 >6 >6 >6 >6
CIG 38 40 40 40 40 45 45 45 45 45 45 45 45 60
Cover OVC OVC OVC OVC OVC OVC OVC OVC OVC OVC OVC OVC OVC BKN
FltCat VFR VFR VFR VFR VFR VFR VFR VFR VFR VFR VFR VFR VFR VFR
WX -- -- -- -- -- -- -- -- -- -- -- -- -- --
WDir 180 220 220 220 220 240 240 240 240 240 240 240 240 270
WSpd 6 5 5 5 5 7 7 7 7 7 7 7 7 4
WGst -- -- -- -- -- -- -- -- -- -- -- -- -- --
Raw TAF
KEUG 071135Z 0712/0812 22005KT P6SM SCT025 OVC040
  FM071800 24007KT P6SM SCT030 BKN045 OVC060
  FM080200 27004KT P6SM SCT040 BKN060


Raw METAR
KEUG 071254Z 18006KT 10SM BKN038 OVC055 14/09 A3014 RMK AO2 SLP206 T01390094
KEUG 071154Z AUTO 19005KT 10SM OVC041 13/09 A3013 RMK AO2 SLP202 T01330094 10150 20133 53002
KEUG 071054Z AUTO 22006KT 10SM OVC039 14/10 A3013 RMK AO2 SLP201 T01390100

METAR Board
Radar Display
Forecast Discussion
For situational awareness. Not to be used for flight planning purposes.